sensor_id;sensor_type;location;lat;lon;timestamp;P1;P2;P0
79038;PMS5003;68436;55.068;73.284;2023-06-10T00:00:47;28.00;24.25;16.00
79038;PMS5003;68436;55.068;73.284;2023-06-10T00:05:58;35.00;29.00;19.00
79038;PMS5003;68436;55.068;73.284;2023-06-10T00:11:27;24.75;21.50;14.50
79038;PMS5003;68436;55.068;73.284;2023-06-10T00:13:53;29.00;24.67;16.00
79038;PMS5003;68436;55.068;73.284;2023-06-10T00:16:19;26.50;24.00;17.00
79038;PMS5003;68436;55.068;73.284;2023-06-10T00:18:45;29.00;24.00;17.00
79038;PMS5003;68436;55.068;73.284;2023-06-10T00:21:32;28.25;24.00;16.00
79038;PMS5003;68436;55.068;73.284;2023-06-10T00:27:08;39.00;32.33;20.00
79038;PMS5003;68436;55.068;73.284;2023-06-10T00:29:35;49.00;38.75;25.50
79038;PMS5003;68436;55.068;73.284;2023-06-10T00:32:06;51.00;41.50;27.00
79038;PMS5003;68436;55.068;73.284;2023-06-10T00:34:51;30.00;25.00;16.25
79038;PMS5003;68436;55.068;73.284;2023-06-10T00:37:17;29.00;25.00;18.00
79038;PMS5003;68436;55.068;73.284;2023-06-10T00:42:27;34.00;28.00;18.67
79038;PMS5003;68436;55.068;73.284;2023-06-10T00:44:54;38.00;31.00;20.00
79038;PMS5003;68436;55.068;73.284;2023-06-10T00:47:20;42.33;36.00;23.00
79038;PMS5003;68436;55.068;73.284;2023-06-10T00:49:47;52.50;43.00;28.00
79038;PMS5003;68436;55.068;73.284;2023-06-10T00:52:14;51.00;41.00;26.00
79038;PMS5003;68436;55.068;73.284;2023-06-10T00:54:40;39.25;32.75;22.50
79038;PMS5003;68436;55.068;73.284;2023-06-10T00:57:07;36.50;31.00;20.50
79038;PMS5003;68436;55.068;73.284;2023-06-10T00:59:34;39.00;33.00;22.75
79038;PMS5003;68436;55.068;73.284;2023-06-10T01:02:06;40.00;34.00;23.00
79038;PMS5003;68436;55.068;73.284;2023-06-10T01:12:43;35.00;29.33;20.00
79038;PMS5003;68436;55.068;73.284;2023-06-10T01:15:17;35.00;29.00;19.25
79038;PMS5003;68436;55.068;73.284;2023-06-10T01:17:57;38.00;31.00;21.50
79038;PMS5003;68436;55.068;73.284;2023-06-10T01:20:25;38.75;32.25;22.00
79038;PMS5003;68436;55.068;73.284;2023-06-10T01:23:10;39.00;32.25;21.75
79038;PMS5003;68436;55.068;73.284;2023-06-10T01:25:40;48.00;38.00;24.00
79038;PMS5003;68436;55.068;73.284;2023-06-10T01:30:37;56.25;45.00;29.00
79038;PMS5003;68436;55.068;73.284;2023-06-10T01:33:07;69.00;55.33;37.00
79038;PMS5003;68436;55.068;73.284;2023-06-10T01:35:35;76.25;64.25;43.00
79038;PMS5003;68436;55.068;73.284;2023-06-10T01:38:02;73.00;60.00;39.00
79038;PMS5003;68436;55.068;73.284;2023-06-10T01:40:29;60.50;49.00;32.00
79038;PMS5003;68436;55.068;73.284;2023-06-10T01:42:55;54.00;44.00;28.00
79038;PMS5003;68436;55.068;73.284;2023-06-10T01:45:21;59.50;46.25;29.25
79038;PMS5003;68436;55.068;73.284;2023-06-10T01:47:47;50.67;41.33;27.67
79038;PMS5003;68436;55.068;73.284;2023-06-10T01:50:32;45.00;37.00;25.00
79038;PMS5003;68436;55.068;73.284;2023-06-10T01:52:59;40.00;33.00;22.00
79038;PMS5003;68436;55.068;73.284;2023-06-10T01:55:43;32.25;28.00;18.25
79038;PMS5003;68436;55.068;73.284;2023-06-10T01:58:09;38.00;30.00;21.00
79038;PMS5003;68436;55.068;73.284;2023-06-10T02:00:35;32.00;27.00;18.00
79038;PMS5003;68436;55.068;73.284;2023-06-10T02:03:01;29.50;25.00;17.00
79038;PMS5003;68436;55.068;73.284;2023-06-10T02:05:27;46.75;38.00;26.00
79038;PMS5003;68436;55.068;73.284;2023-06-10T02:10:56;53.00;42.00;27.00
79038;PMS5003;68436;55.068;73.284;2023-06-10T02:13:22;40.00;33.00;22.00
79038;PMS5003;68436;55.068;73.284;2023-06-10T02:15:53;34.00;28.50;19.00
79038;PMS5003;68436;55.068;73.284;2023-06-10T02:18:19;38.00;31.00;21.00
79038;PMS5003;68436;55.068;73.284;2023-06-10T02:21:04;35.50;29.00;20.00
79038;PMS5003;68436;55.068;73.284;2023-06-10T02:26:14;37.00;31.25;21.00
79038;PMS5003;68436;55.068;73.284;2023-06-10T02:31:26;38.00;31.75;21.00
79038;PMS5003;68436;55.068;73.284;2023-06-10T02:33:53;43.33;36.00;23.00
79038;PMS5003;68436;55.068;73.284;2023-06-10T02:39:24;43.00;36.00;24.00
79038;PMS5003;68436;55.068;73.284;2023-06-10T02:41:50;35.00;30.00;21.00
79038;PMS5003;68436;55.068;73.284;2023-06-10T02:44:20;42.33;35.00;23.00
79038;PMS5003;68436;55.068;73.284;2023-06-10T02:46:46;38.25;33.00;22.00
79038;PMS5003;68436;55.068;73.284;2023-06-10T02:49:12;41.50;34.00;22.75
79038;PMS5003;68436;55.068;73.284;2023-06-10T02:51:38;36.50;30.50;21.00
79038;PMS5003;68436;55.068;73.284;2023-06-10T02:54:05;38.67;32.67;22.00
79038;PMS5003;68436;55.068;73.284;2023-06-10T02:56:31;37.00;31.00;21.00
79038;PMS5003;68436;55.068;73.284;2023-06-10T02:59:01;36.33;31.00;22.00
79038;PMS5003;68436;55.068;73.284;2023-06-10T03:01:29;38.00;31.00;21.00
79038;PMS5003;68436;55.068;73.284;2023-06-10T03:04:05;41.00;34.00;23.00
79038;PMS5003;68436;55.068;73.284;2023-06-10T03:06:49;42.75;36.00;23.00
79038;PMS5003;68436;55.068;73.284;2023-06-10T03:09:24;31.50;26.50;18.00
79038;PMS5003;68436;55.068;73.284;2023-06-10T03:11:54;44.75;37.00;23.50
79038;PMS5003;68436;55.068;73.284;2023-06-10T03:14:21;47.50;37.00;23.25
79038;PMS5003;68436;55.068;73.284;2023-06-10T03:16:47;35.00;29.00;19.00
79038;PMS5003;68436;55.068;73.284;2023-06-10T03:19:14;30.00;25.00;17.00
79038;PMS5003;68436;55.068;73.284;2023-06-10T03:24:37;30.75;26.00;17.75
79038;PMS5003;68436;55.068;73.284;2023-06-10T03:27:07;35.00;28.50;19.00
79038;PMS5003;68436;55.068;73.284;2023-06-10T03:29:35;33.00;28.00;19.00
79038;PMS5003;68436;55.068;73.284;2023-06-10T03:32:06;30.00;26.00;18.00
79038;PMS5003;68436;55.068;73.284;2023-06-10T03:34:33;27.25;24.00;17.00
79038;PMS5003;68436;55.068;73.284;2023-06-10T03:37:05;29.50;25.00;17.00
79038;PMS5003;68436;55.068;73.284;2023-06-10T03:39:50;26.00;23.00;15.00
79038;PMS5003;68436;55.068;73.284;2023-06-10T03:42:35;31.00;26.00;16.00
79038;PMS5003;68436;55.068;73.284;2023-06-10T03:45:02;27.00;23.00;16.00
79038;PMS5003;68436;55.068;73.284;2023-06-10T03:47:36;26.67;24.00;17.00
79038;PMS5003;68436;55.068;73.284;2023-06-10T03:50:05;30.50;26.00;17.00
79038;PMS5003;68436;55.068;73.284;2023-06-10T03:52:31;21.50;18.75;13.25
79038;PMS5003;68436;55.068;73.284;2023-06-10T03:54:58;24.00;21.50;14.00
79038;PMS5003;68436;55.068;73.284;2023-06-10T03:57:44;19.00;18.00;13.00
79038;PMS5003;68436;55.068;73.284;2023-06-10T04:00:10;20.00;18.00;13.00
79038;PMS5003;68436;55.068;73.284;2023-06-10T04:02:40;24.00;22.00;14.00
79038;PMS5003;68436;55.068;73.284;2023-06-10T04:05:29;18.25;16.25;12.00
79038;PMS5003;68436;55.068;73.284;2023-06-10T04:07:57;20.33;18.00;13.00
79038;PMS5003;68436;55.068;73.284;2023-06-10T04:10:41;19.75;17.75;12.00
79038;PMS5003;68436;55.068;73.284;2023-06-10T04:13:07;17.33;15.67;10.00
79038;PMS5003;68436;55.068;73.284;2023-06-10T04:15:40;21.00;18.00;11.00
79038;PMS5003;68436;55.068;73.284;2023-06-10T04:21:10;16.00;14.00;9.00
79038;PMS5003;68436;55.068;73.284;2023-06-10T04:23:36;16.00;14.00;10.00
79038;PMS5003;68436;55.068;73.284;2023-06-10T04:26:05;23.00;20.00;13.00
79038;PMS5003;68436;55.068;73.284;2023-06-10T04:28:50;25.00;21.67;14.00
79038;PMS5003;68436;55.068;73.284;2023-06-10T04:31:17;19.00;18.00;13.00
79038;PMS5003;68436;55.068;73.284;2023-06-10T04:33:43;24.00;20.67;14.33
79038;PMS5003;68436;55.068;73.284;2023-06-10T04:36:10;19.00;16.50;11.00
79038;PMS5003;68436;55.068;73.284;2023-06-10T04:38:36;26.00;22.00;15.00
79038;PMS5003;68436;55.068;73.284;2023-06-10T04:41:03;27.00;24.00;16.00
79038;PMS5003;68436;55.068;73.284;2023-06-10T04:43:32;28.00;23.33;15.67
79038;PMS5003;68436;55.068;73.284;2023-06-10T04:45:59;21.00;18.75;13.00
79038;PMS5003;68436;55.068;73.284;2023-06-10T04:48:27;20.00;17.00;10.33
79038;PMS5003;68436;55.068;73.284;2023-06-10T04:50:53;19.00;17.00;11.00
79038;PMS5003;68436;55.068;73.284;2023-06-10T04:53:19;20.00;18.00;12.00
79038;PMS5003;68436;55.068;73.284;2023-06-10T04:55:46;17.00;15.00;9.25
79038;PMS5003;68436;55.068;73.284;2023-06-10T04:58:31;16.33;15.33;10.33
79038;PMS5003;68436;55.068;73.284;2023-06-10T05:00:57;24.00;21.00;14.25
79038;PMS5003;68436;55.068;73.284;2023-06-10T05:03:24;25.33;22.33;14.00
79038;PMS5003;68436;55.068;73.284;2023-06-10T05:05:50;22.00;19.75;14.00
79038;PMS5003;68436;55.068;73.284;2023-06-10T05:08:16;20.00;18.00;13.00
79038;PMS5003;68436;55.068;73.284;2023-06-10T05:10:42;23.50;20.00;13.00
79038;PMS5003;68436;55.068;73.284;2023-06-10T05:13:27;21.00;19.00;12.67
79038;PMS5003;68436;55.068;73.284;2023-06-10T05:15:53;17.50;15.75;11.00
79038;PMS5003;68436;55.068;73.284;2023-06-10T05:18:19;16.00;15.00;10.00
79038;PMS5003;68436;55.068;73.284;2023-06-10T05:20:45;17.00;15.00;10.00
79038;PMS5003;68436;55.068;73.284;2023-06-10T05:23:11;13.67;13.00;9.00
79038;PMS5003;68436;55.068;73.284;2023-06-10T05:25:56;15.25;13.75;9.00
79038;PMS5003;68436;55.068;73.284;2023-06-10T05:28:22;22.00;19.00;12.33
79038;PMS5003;68436;55.068;73.284;2023-06-10T05:30:48;18.00;16.00;10.00
79038;PMS5003;68436;55.068;73.284;2023-06-10T05:33:14;15.33;14.00;10.00
79038;PMS5003;68436;55.068;73.284;2023-06-10T05:38:25;19.00;17.00;11.00
79038;PMS5003;68436;55.068;73.284;2023-06-10T05:40:52;18.75;17.00;11.00
79038;PMS5003;68436;55.068;73.284;2023-06-10T05:43:21;17.00;16.00;11.00
79038;PMS5003;68436;55.068;73.284;2023-06-10T05:45:47;19.00;18.00;12.25
79038;PMS5003;68436;55.068;73.284;2023-06-10T05:48:13;15.00;14.00;11.00
79038;PMS5003;68436;55.068;73.284;2023-06-10T05:50:39;17.50;16.00;11.00
79038;PMS5003;68436;55.068;73.284;2023-06-10T05:53:08;14.00;13.00;9.00
79038;PMS5003;68436;55.068;73.284;2023-06-10T05:55:42;17.00;15.00;10.00
79038;PMS5003;68436;55.068;73.284;2023-06-10T05:58:07;19.00;17.00;11.00
79038;PMS5003;68436;55.068;73.284;2023-06-10T06:00:34;18.00;17.00;11.00
79038;PMS5003;68436;55.068;73.284;2023-06-10T06:03:00;19.00;17.67;13.00
79038;PMS5003;68436;55.068;73.284;2023-06-10T06:05:26;20.25;17.25;12.00
79038;PMS5003;68436;55.068;73.284;2023-06-10T06:07:52;20.00;18.00;13.00
79038;PMS5003;68436;55.068;73.284;2023-06-10T06:10:18;16.50;14.75;10.00
79038;PMS5003;68436;55.068;73.284;2023-06-10T06:12:44;18.00;15.33;11.00
79038;PMS5003;68436;55.068;73.284;2023-06-10T06:15:11;19.75;16.00;11.00
79038;PMS5003;68436;55.068;73.284;2023-06-10T06:17:37;17.67;16.00;11.00
79038;PMS5003;68436;55.068;73.284;2023-06-10T06:20:03;21.75;18.00;12.00
79038;PMS5003;68436;55.068;73.284;2023-06-10T06:22:29;21.00;18.00;12.00
79038;PMS5003;68436;55.068;73.284;2023-06-10T06:24:55;19.75;17.00;11.00
79038;PMS5003;68436;55.068;73.284;2023-06-10T06:27:40;19.00;17.00;11.00
79038;PMS5003;68436;55.068;73.284;2023-06-10T06:30:06;19.00;17.00;11.00
79038;PMS5003;68436;55.068;73.284;2023-06-10T06:32:33;19.00;17.00;12.00
79038;PMS5003;68436;55.068;73.284;2023-06-10T06:34:59;22.25;18.50;12.50
79038;PMS5003;68436;55.068;73.284;2023-06-10T06:37:25;17.00;16.00;11.00
79038;PMS5003;68436;55.068;73.284;2023-06-10T06:40:02;17.75;16.00;12.00
79038;PMS5003;68436;55.068;73.284;2023-06-10T06:45:20;18.25;16.75;12.00
79038;PMS5003;68436;55.068;73.284;2023-06-10T06:47:46;19.00;16.00;11.00
79038;PMS5003;68436;55.068;73.284;2023-06-10T06:50:11;19.00;17.00;12.00
79038;PMS5003;68436;55.068;73.284;2023-06-10T06:52:37;18.00;16.00;12.00
79038;PMS5003;68436;55.068;73.284;2023-06-10T06:55:22;17.25;16.00;11.00
79038;PMS5003;68436;55.068;73.284;2023-06-10T07:00:51;16.00;15.00;11.00
79038;PMS5003;68436;55.068;73.284;2023-06-10T07:03:17;19.00;17.00;11.00
79038;PMS5003;68436;55.068;73.284;2023-06-10T07:06:01;15.50;14.50;10.00
79038;PMS5003;68436;55.068;73.284;2023-06-10T07:08:27;15.75;14.00;10.00
79038;PMS5003;68436;55.068;73.284;2023-06-10T07:10:56;16.00;15.00;10.00
79038;PMS5003;68436;55.068;73.284;2023-06-10T07:16:06;13.75;13.00;9.00
79038;PMS5003;68436;55.068;73.284;2023-06-10T07:18:52;17.00;16.00;11.00
79038;PMS5003;68436;55.068;73.284;2023-06-10T07:21:18;16.50;15.25;10.75
79038;PMS5003;68436;55.068;73.284;2023-06-10T07:23:44;14.67;13.33;9.33
79038;PMS5003;68436;55.068;73.284;2023-06-10T07:29:13;18.00;17.00;12.33
79038;PMS5003;68436;55.068;73.284;2023-06-10T07:34:43;16.00;14.00;10.00
79038;PMS5003;68436;55.068;73.284;2023-06-10T07:37:09;18.33;16.33;11.00
79038;PMS5003;68436;55.068;73.284;2023-06-10T07:39:35;18.00;16.00;11.00
79038;PMS5003;68436;55.068;73.284;2023-06-10T07:42:06;16.50;14.00;10.00
79038;PMS5003;68436;55.068;73.284;2023-06-10T07:44:32;14.25;13.25;9.00
79038;PMS5003;68436;55.068;73.284;2023-06-10T07:47:06;13.67;12.00;9.00
79038;PMS5003;68436;55.068;73.284;2023-06-10T07:49:32;16.00;14.00;9.00
79038;PMS5003;68436;55.068;73.284;2023-06-10T07:52:06;14.00;13.00;9.00
79038;PMS5003;68436;55.068;73.284;2023-06-10T07:54:32;14.00;13.00;9.00
79038;PMS5003;68436;55.068;73.284;2023-06-10T07:57:06;15.00;14.00;9.00
79038;PMS5003;68436;55.068;73.284;2023-06-10T07:59:33;23.00;19.00;12.00
79038;PMS5003;68436;55.068;73.284;2023-06-10T08:02:05;17.00;16.00;11.00
79038;PMS5003;68436;55.068;73.284;2023-06-10T08:04:31;16.00;14.00;10.00
79038;PMS5003;68436;55.068;73.284;2023-06-10T08:07:05;17.00;15.00;10.33
79038;PMS5003;68436;55.068;73.284;2023-06-10T08:09:31;17.25;16.00;12.00
79038;PMS5003;68436;55.068;73.284;2023-06-10T08:12:06;22.33;20.00;13.67
79038;PMS5003;68436;55.068;73.284;2023-06-10T08:14:34;17.00;16.00;11.00
79038;PMS5003;68436;55.068;73.284;2023-06-10T08:17:05;14.00;14.00;10.00
79038;PMS5003;68436;55.068;73.284;2023-06-10T08:19:32;14.75;13.50;10.00
79038;PMS5003;68436;55.068;73.284;2023-06-10T08:24:50;18.00;16.00;10.00
79038;PMS5003;68436;55.068;73.284;2023-06-10T08:27:16;15.00;14.00;9.67
79038;PMS5003;68436;55.068;73.284;2023-06-10T08:29:42;16.00;15.00;11.00
79038;PMS5003;68436;55.068;73.284;2023-06-10T08:32:08;24.00;19.00;11.50
79038;PMS5003;68436;55.068;73.284;2023-06-10T08:34:34;20.00;19.00;13.00
79038;PMS5003;68436;55.068;73.284;2023-06-10T08:37:06;24.00;21.00;13.00
79038;PMS5003;68436;55.068;73.284;2023-06-10T08:39:32;39.00;29.00;18.00
79038;PMS5003;68436;55.068;73.284;2023-06-10T08:42:22;39.00;30.00;17.00
79038;PMS5003;68436;55.068;73.284;2023-06-10T08:47:35;30.00;24.25;15.00
79038;PMS5003;68436;55.068;73.284;2023-06-10T08:50:04;34.25;27.50;17.75
79038;PMS5003;68436;55.068;73.284;2023-06-10T08:52:37;36.00;31.00;20.33
79038;PMS5003;68436;55.068;73.284;2023-06-10T08:57:51;19.25;17.75;13.00
79038;PMS5003;68436;55.068;73.284;2023-06-10T09:00:18;27.00;24.00;16.00
79038;PMS5003;68436;55.068;73.284;2023-06-10T09:02:44;22.00;20.67;15.00
79038;PMS5003;68436;55.068;73.284;2023-06-10T09:05:10;22.00;20.00;14.00
79038;PMS5003;68436;55.068;73.284;2023-06-10T09:07:36;28.75;25.00;17.75
79038;PMS5003;68436;55.068;73.284;2023-06-10T09:12:47;21.50;18.00;12.00
79038;PMS5003;68436;55.068;73.284;2023-06-10T09:15:13;16.00;14.25;10.00
79038;PMS5003;68436;55.068;73.284;2023-06-10T09:17:40;15.00;14.00;10.00
79038;PMS5003;68436;55.068;73.284;2023-06-10T09:22:51;25.00;21.75;13.00
79038;PMS5003;68436;55.068;73.284;2023-06-10T09:25:17;18.00;16.25;11.00
79038;PMS5003;68436;55.068;73.284;2023-06-10T09:28:02;23.00;20.00;13.00
79038;PMS5003;68436;55.068;73.284;2023-06-10T09:30:29;25.50;22.00;14.00
79038;PMS5003;68436;55.068;73.284;2023-06-10T09:32:56;24.00;20.00;12.00
79038;PMS5003;68436;55.068;73.284;2023-06-10T09:35:47;19.00;17.00;13.00
79038;PMS5003;68436;55.068;73.284;2023-06-10T09:40:58;17.00;15.00;11.00
79038;PMS5003;68436;55.068;73.284;2023-06-10T09:43:38;19.00;17.00;11.00
79038;PMS5003;68436;55.068;73.284;2023-06-10T09:46:22;20.50;19.00;12.00
79038;PMS5003;68436;55.068;73.284;2023-06-10T09:48:48;14.00;12.67;9.67
79038;PMS5003;68436;55.068;73.284;2023-06-10T09:51:15;17.00;15.50;10.00
79038;PMS5003;68436;55.068;73.284;2023-06-10T09:53:48;19.00;16.00;10.00
79038;PMS5003;68436;55.068;73.284;2023-06-10T09:56:14;21.00;18.00;13.00
79038;PMS5003;68436;55.068;73.284;2023-06-10T09:58:40;15.00;14.00;10.00
79038;PMS5003;68436;55.068;73.284;2023-06-10T10:01:09;14.75;13.00;9.00
79038;PMS5003;68436;55.068;73.284;2023-06-10T10:06:12;18.25;16.00;11.00
79038;PMS5003;68436;55.068;73.284;2023-06-10T10:08:57;25.00;21.00;12.67
79038;PMS5003;68436;55.068;73.284;2023-06-10T10:11:23;27.00;24.00;16.00
79038;PMS5003;68436;55.068;73.284;2023-06-10T10:13:51;26.00;21.00;12.33
79038;PMS5003;68436;55.068;73.284;2023-06-10T10:16:21;14.00;13.00;9.00
79038;PMS5003;68436;55.068;73.284;2023-06-10T10:18:53;21.00;18.00;12.50
79038;PMS5003;68436;55.068;73.284;2023-06-10T10:24:24;23.25;21.50;14.50
79038;PMS5003;68436;55.068;73.284;2023-06-10T10:26:53;17.50;15.00;10.00
79038;PMS5003;68436;55.068;73.284;2023-06-10T10:29:24;14.00;13.00;9.00
79038;PMS5003;68436;55.068;73.284;2023-06-10T10:31:50;18.00;14.00;9.00
79038;PMS5003;68436;55.068;73.284;2023-06-10T10:34:21;15.00;14.00;10.00
79038;PMS5003;68436;55.068;73.284;2023-06-10T10:36:52;16.00;14.00;9.00
79038;PMS5003;68436;55.068;73.284;2023-06-10T10:39:18;13.67;12.00;8.00
79038;PMS5003;68436;55.068;73.284;2023-06-10T10:41:44;11.00;10.00;8.00
79038;PMS5003;68436;55.068;73.284;2023-06-10T10:44:11;15.00;14.00;10.00
79038;PMS5003;68436;55.068;73.284;2023-06-10T10:46:42;14.00;12.00;9.00
79038;PMS5003;68436;55.068;73.284;2023-06-10T10:49:08;13.00;12.50;9.00
79038;PMS5003;68436;55.068;73.284;2023-06-10T10:51:34;15.50;14.75;10.00
79038;PMS5003;68436;55.068;73.284;2023-06-10T10:54:10;15.00;13.00;9.00
79038;PMS5003;68436;55.068;73.284;2023-06-10T10:56:38;14.00;12.50;9.75
79038;PMS5003;68436;55.068;73.284;2023-06-10T10:59:04;13.00;12.00;9.00
79038;PMS5003;68436;55.068;73.284;2023-06-10T11:01:43;17.00;15.00;11.00
79038;PMS5003;68436;55.068;73.284;2023-06-10T11:04:12;16.00;13.00;9.00
79038;PMS5003;68436;55.068;73.284;2023-06-10T11:06:38;25.75;22.75;15.00
79038;PMS5003;68436;55.068;73.284;2023-06-10T11:11:49;15.00;14.00;10.00
79038;PMS5003;68436;55.068;73.284;2023-06-10T11:14:15;19.00;17.00;11.00
79038;PMS5003;68436;55.068;73.284;2023-06-10T11:16:52;20.00;17.75;10.00
79038;PMS5003;68436;55.068;73.284;2023-06-10T11:19:36;14.00;13.00;8.25
79038;PMS5003;68436;55.068;73.284;2023-06-10T11:22:06;12.00;12.00;9.00
79038;PMS5003;68436;55.068;73.284;2023-06-10T11:24:33;11.00;10.00;7.00
79038;PMS5003;68436;55.068;73.284;2023-06-10T11:27:21;11.75;11.25;8.00
79038;PMS5003;68436;55.068;73.284;2023-06-10T11:32:24;14.33;13.33;9.00
79038;PMS5003;68436;55.068;73.284;2023-06-10T11:34:54;14.00;13.00;9.00
79038;PMS5003;68436;55.068;73.284;2023-06-10T11:37:20;18.33;17.00;12.00
79038;PMS5003;68436;55.068;73.284;2023-06-10T11:39:46;14.00;13.00;10.00
79038;PMS5003;68436;55.068;73.284;2023-06-10T11:47:23;12.00;12.00;8.00
79038;PMS5003;68436;55.068;73.284;2023-06-10T11:49:56;11.00;10.00;7.00
79038;PMS5003;68436;55.068;73.284;2023-06-10T12:03:27;14.00;13.00;9.67
79038;PMS5003;68436;55.068;73.284;2023-06-10T12:08:46;11.33;10.00;7.00
79038;PMS5003;68436;55.068;73.284;2023-06-10T12:11:12;12.00;10.50;7.00
79038;PMS5003;68436;55.068;73.284;2023-06-10T12:13:38;23.00;20.00;14.00
79038;PMS5003;68436;55.068;73.284;2023-06-10T12:16:12;22.00;18.25;12.50
79038;PMS5003;68436;55.068;73.284;2023-06-10T12:18:38;17.00;15.00;10.00
79038;PMS5003;68436;55.068;73.284;2023-06-10T12:21:14;11.00;10.00;7.00
79038;PMS5003;68436;55.068;73.284;2023-06-10T12:24:03;24.00;19.00;12.00
79038;PMS5003;68436;55.068;73.284;2023-06-10T12:26:36;14.00;12.00;9.00
79038;PMS5003;68436;55.068;73.284;2023-06-10T12:29:24;11.25;11.00;7.00
79038;PMS5003;68436;55.068;73.284;2023-06-10T12:32:09;19.00;16.00;9.75
79038;PMS5003;68436;55.068;73.284;2023-06-10T12:35:04;15.00;13.00;9.00
79038;PMS5003;68436;55.068;73.284;2023-06-10T12:37:31;12.00;10.00;7.00
79038;PMS5003;68436;55.068;73.284;2023-06-10T12:40:15;11.50;10.00;7.00
79038;PMS5003;68436;55.068;73.284;2023-06-10T12:42:41;34.00;28.00;17.50
79038;PMS5003;68436;55.068;73.284;2023-06-10T12:45:09;19.75;18.50;12.50
79038;PMS5003;68436;55.068;73.284;2023-06-10T12:47:36;29.00;25.00;16.00
79038;PMS5003;68436;55.068;73.284;2023-06-10T12:50:05;11.00;9.00;6.75
79038;PMS5003;68436;55.068;73.284;2023-06-10T12:52:31;13.50;11.00;7.50
79038;PMS5003;68436;55.068;73.284;2023-06-10T12:55:16;16.00;12.50;9.00
79038;PMS5003;68436;55.068;73.284;2023-06-10T12:57:50;57.50;45.00;29.50
79038;PMS5003;68436;55.068;73.284;2023-06-10T13:00:34;42.50;31.00;18.25
79038;PMS5003;68436;55.068;73.284;2023-06-10T13:03:01;14.00;12.00;8.00
79038;PMS5003;68436;55.068;73.284;2023-06-10T13:05:28;12.00;11.00;7.00
79038;PMS5003;68436;55.068;73.284;2023-06-10T13:07:54;12.33;11.67;7.67
79038;PMS5003;68436;55.068;73.284;2023-06-10T13:10:39;8.00;8.00;6.00
79038;PMS5003;68436;55.068;73.284;2023-06-10T13:13:05;10.75;10.00;7.00
79038;PMS5003;68436;55.068;73.284;2023-06-10T13:15:33;12.00;11.00;7.25
79038;PMS5003;68436;55.068;73.284;2023-06-10T13:20:46;14.00;13.00;8.00
79038;PMS5003;68436;55.068;73.284;2023-06-10T13:23:12;18.25;16.25;10.25
79038;PMS5003;68436;55.068;73.284;2023-06-10T13:25:39;25.50;22.50;14.50
79038;PMS5003;68436;55.068;73.284;2023-06-10T13:28:24;20.00;18.50;12.00
79038;PMS5003;68436;55.068;73.284;2023-06-10T13:33:36;28.00;24.75;16.00
79038;PMS5003;68436;55.068;73.284;2023-06-10T13:36:02;12.50;10.00;6.00
79038;PMS5003;68436;55.068;73.284;2023-06-10T13:38:28;9.75;9.50;6.00
79038;PMS5003;68436;55.068;73.284;2023-06-10T13:40:56;9.00;8.00;6.00
79038;PMS5003;68436;55.068;73.284;2023-06-10T13:43:22;10.00;9.00;6.00
79038;PMS5003;68436;55.068;73.284;2023-06-10T13:51:17;16.50;15.25;10.25
79038;PMS5003;68436;55.068;73.284;2023-06-10T13:53:43;9.25;8.25;6.00
79038;PMS5003;68436;55.068;73.284;2023-06-10T13:56:11;8.00;8.00;6.00
79038;PMS5003;68436;55.068;73.284;2023-06-10T13:58:37;8.00;8.00;6.00
79038;PMS5003;68436;55.068;73.284;2023-06-10T14:01:05;7.75;7.00;4.00
79038;PMS5003;68436;55.068;73.284;2023-06-10T14:03:31;7.00;7.00;5.00
79038;PMS5003;68436;55.068;73.284;2023-06-10T14:05:57;8.00;7.00;5.00
79038;PMS5003;68436;55.068;73.284;2023-06-10T14:08:25;8.00;7.00;6.00
79038;PMS5003;68436;55.068;73.284;2023-06-10T14:10:51;10.00;9.00;5.00
79038;PMS5003;68436;55.068;73.284;2023-06-10T14:13:17;8.00;7.00;5.00
79038;PMS5003;68436;55.068;73.284;2023-06-10T14:15:43;17.00;14.75;9.00
79038;PMS5003;68436;55.068;73.284;2023-06-10T14:18:09;16.00;15.00;10.00
79038;PMS5003;68436;55.068;73.284;2023-06-10T14:20:35;16.00;14.00;9.00
79038;PMS5003;68436;55.068;73.284;2023-06-10T14:23:02;14.00;12.00;8.00
79038;PMS5003;68436;55.068;73.284;2023-06-10T14:25:28;19.00;16.50;10.00
79038;PMS5003;68436;55.068;73.284;2023-06-10T14:27:54;18.00;15.00;9.00
79038;PMS5003;68436;55.068;73.284;2023-06-10T14:30:20;10.00;9.00;6.00
79038;PMS5003;68436;55.068;73.284;2023-06-10T14:32:46;19.00;14.33;8.00
79038;PMS5003;68436;55.068;73.284;2023-06-10T14:35:12;13.00;10.25;7.00
79038;PMS5003;68436;55.068;73.284;2023-06-10T14:37:38;14.00;12.00;8.00
79038;PMS5003;68436;55.068;73.284;2023-06-10T14:40:05;15.25;14.00;9.00
79038;PMS5003;68436;55.068;73.284;2023-06-10T14:42:31;18.00;16.00;11.00
79038;PMS5003;68436;55.068;73.284;2023-06-10T14:45:15;23.00;20.00;13.00
79038;PMS5003;68436;55.068;73.284;2023-06-10T14:47:41;20.00;18.00;12.00
79038;PMS5003;68436;55.068;73.284;2023-06-10T14:50:07;20.75;18.75;12.00
79038;PMS5003;68436;55.068;73.284;2023-06-10T14:53:02;22.00;20.00;14.00
79038;PMS5003;68436;55.068;73.284;2023-06-10T14:55:46;28.25;24.75;17.00
79038;PMS5003;68436;55.068;73.284;2023-06-10T14:58:12;37.00;30.00;20.00
79038;PMS5003;68436;55.068;73.284;2023-06-10T15:00:38;34.75;29.50;19.50
79038;PMS5003;68436;55.068;73.284;2023-06-10T15:05:48;35.25;29.50;19.00
79038;PMS5003;68436;55.068;73.284;2023-06-10T15:08:32;35.25;29.75;19.25
79038;PMS5003;68436;55.068;73.284;2023-06-10T15:10:59;28.50;24.75;16.75
79038;PMS5003;68436;55.068;73.284;2023-06-10T15:13:27;30.00;25.75;17.00
79038;PMS5003;68436;55.068;73.284;2023-06-10T15:15:53;30.75;26.00;18.00
79038;PMS5003;68436;55.068;73.284;2023-06-10T15:18:20;33.67;28.00;19.00
79038;PMS5003;68436;55.068;73.284;2023-06-10T15:20:46;32.25;27.00;18.00
79038;PMS5003;68436;55.068;73.284;2023-06-10T15:23:11;27.00;24.00;17.00
79038;PMS5003;68436;55.068;73.284;2023-06-10T15:25:37;29.00;25.00;17.00
79038;PMS5003;68436;55.068;73.284;2023-06-10T15:28:06;30.00;25.33;17.00
79038;PMS5003;68436;55.068;73.284;2023-06-10T15:30:32;29.25;26.00;17.00
79038;PMS5003;68436;55.068;73.284;2023-06-10T15:32:58;32.33;27.67;19.00
79038;PMS5003;68436;55.068;73.284;2023-06-10T15:35:44;50.00;39.50;25.00
79038;PMS5003;68436;55.068;73.284;2023-06-10T15:38:28;54.00;43.00;27.00
79038;PMS5003;68436;55.068;73.284;2023-06-10T15:40:55;53.00;41.00;26.00
79038;PMS5003;68436;55.068;73.284;2023-06-10T15:43:21;50.00;41.00;26.00
79038;PMS5003;68436;55.068;73.284;2023-06-10T15:45:47;48.25;39.50;25.00
79038;PMS5003;68436;55.068;73.284;2023-06-10T15:48:13;37.00;30.00;20.00